^^
Lake Charleston Parkviewx Station Historical Data
 
Daily Summary for May 11, 2021 Units:  English    Metric   Both
Daily Weekly Monthly Yearly Custom
  Current: High: Low: Average:
Temperature: 87.7 °F 87.7 °F 75.4 °F 78 °F
Dew Point: 76.8 °F 77.2 °F 72.5 °F 73.8 °F
Humidity: 70.3% 92% 68.2% 87%
Wind Speed: 1.7mph 3.5mph 0mph 0.9mph
Wind Gust: 6mph 7mph - -
WindWest - - WSW
Pressure: 30.14 in 30.14 in 30.06 in -
Precipitation: 0.00 in      
Historical Graphs
 
 
Tabular Data for May 11, 2021
Time Temperature Dew Point Pressure Wind Wind Speed Wind Gust Humidity Rainfall Rate (Hourly) solar
00:04 79.2 °F 74.3 °F 30.10 in SSE 1.2 mph 6 mph 85% 0.00 in W/m2
00:09 79.1 °F 74.2 °F 30.10 in South 0.6 mph 6 mph 85% 0.00 in W/m2
00:14 79 °F 74.1 °F 30.10 in South 1.3 mph 2 mph 85% 0.00 in W/m2
00:19 79 °F 74.1 °F 30.10 in South 1.3 mph 3 mph 85% 0.00 in W/m2
00:24 78.8 °F 73.9 °F 30.10 in South 1.2 mph 4 mph 85% 0.00 in W/m2
00:29 78.6 °F 73.9 °F 30.10 in South 1.6 mph 4 mph 85.4% 0.00 in W/m2
00:34 78.6 °F 73.8 °F 30.10 in South 2.5 mph 5 mph 85.1% 0.00 in W/m2
00:39 78.5 °F 73.7 °F 30.10 in SSW 1.4 mph 3 mph 85% 0.00 in W/m2
00:44 78.4 °F 73.7 °F 30.10 in SW 1.8 mph 4 mph 85.4% 0.00 in W/m2
00:49 78.4 °F 73.9 °F 30.10 in WSW 2.2 mph 4 mph 86% 0.00 in W/m2
00:54 78.4 °F 73.9 °F 30.10 in WSW 1 mph 3 mph 86% 0.00 in W/m2
00:59 78.4 °F 73.9 °F 30.10 in West 2.8 mph 7 mph 86% 0.00 in W/m2
01:04 78.4 °F 74.1 °F 30.10 in West 1.8 mph 3 mph 86.5% 0.00 in W/m2
01:09 78.3 °F 74.1 °F 30.10 in West 0.6 mph 7 mph 87% 0.00 in W/m2
01:14 78.3 °F 74.1 °F 30.09 in West 0.8 mph 2 mph 87% 0.00 in W/m2
01:19 78.1 °F 73.9 °F 30.09 in West 1.1 mph 2 mph 87% 0.00 in W/m2
01:24 78.1 °F 73.9 °F 30.09 in West 1.7 mph 3 mph 87% 0.00 in W/m2
01:29 78 °F 73.9 °F 30.09 in West 0.6 mph 2 mph 87.3% 0.00 in W/m2
01:34 77.9 °F 74.1 °F 30.09 in West 0.2 mph 2 mph 88% 0.00 in W/m2
01:39 77.7 °F 73.7 °F 30.09 in Calm   2 mph 87.4% 0.00 in W/m2
01:44 77.7 °F 73.9 °F 30.09 in Calm     88% 0.00 in W/m2
01:49 77.7 °F 73.9 °F 30.09 in Calm     88% 0.00 in W/m2
01:54 77.6 °F 73.8 °F 30.09 in Calm     88% 0.00 in W/m2
01:59 77.5 °F 73.8 °F 30.09 in Calm     88% 0.00 in W/m2
02:04 77.5 °F 73.8 °F 30.09 in West 0.5 mph 2 mph 88% 0.00 in W/m2
02:09 77.5 °F 73.8 °F 30.09 in West 0.5 mph 1 mph 88.1% 0.00 in W/m2
02:14 77.4 °F 73.9 °F 30.09 in Calm   2 mph 88.7% 0.00 in W/m2
02:19 77.4 °F 73.6 °F 30.08 in Calm     88.1% 0.00 in W/m2
02:24 77.4 °F 73.6 °F 30.08 in Calm     88% 0.00 in W/m2
02:29 77.2 °F 73.4 °F 30.08 in Calm     88% 0.00 in W/m2
02:34 77.2 °F 73.4 °F 30.08 in Calm     88.1% 0.00 in W/m2
02:39 77 °F 73.6 °F 30.08 in Calm     89% 0.00 in W/m2
02:44 77 °F 73.6 °F 30.08 in Calm     89% 0.00 in W/m2
02:49 76.9 °F 73.5 °F 30.08 in Calm     89% 0.00 in W/m2
02:54 76.8 °F 73.4 °F 30.08 in Calm     89% 0.00 in W/m2
02:59 76.8 °F 73.4 °F 30.08 in Calm     89% 0.00 in W/m2
03:04 76.6 °F 73.2 °F 30.08 in Calm     89% 0.00 in W/m2
03:09 76.6 °F 73.2 °F 30.07 in Calm     89% 0.00 in W/m2
03:14 76.5 °F 73.1 °F 30.08 in Calm     89% 0.00 in W/m2
03:19 76.5 °F 73 °F 30.07 in Calm     89% 0.00 in W/m2
03:24 76.5 °F 73.1 °F 30.07 in West 0.2 mph 2 mph 89.6% 0.00 in W/m2
03:29 76.3 °F 73 °F 30.07 in West 0.7 mph 2 mph 89.9% 0.00 in W/m2
03:34 76.3 °F 73 °F 30.07 in Calm   1 mph 90% 0.00 in W/m2
03:39 76.3 °F 73 °F 30.07 in Calm   2 mph 90% 0.00 in W/m2
03:44 76.3 °F 73 °F 30.07 in Calm     90% 0.00 in W/m2
03:49 76.3 °F 73 °F 30.06 in West 0.1 mph 1 mph 90% 0.00 in W/m2
03:54 76.3 °F 73 °F 30.06 in West 0.1 mph 1 mph 90% 0.00 in W/m2
03:59 76.3 °F 73 °F 30.06 in West 0.3 mph 1 mph 90% 0.00 in W/m2
04:04 76.2 °F 72.9 °F 30.06 in West 0.1 mph 1 mph 90% 0.00 in W/m2
04:09 76 °F 72.9 °F 30.06 in West 0.3 mph 1 mph 90% 0.00 in W/m2
04:14 75.9 °F 72.9 °F 30.06 in West 0.2 mph 2 mph 90% 0.00 in W/m2
04:19 75.7 °F 72.7 °F 30.06 in West 0.6 mph 2 mph 90% 0.00 in W/m2
04:24 75.7 °F 72.7 °F 30.07 in West 0.3 mph 2 mph 90% 0.00 in W/m2
04:29 75.7 °F 72.7 °F 30.07 in West 0.1 mph 1 mph 90% 0.00 in W/m2
04:34 75.7 °F 72.7 °F 30.06 in Calm   2 mph 90% 0.00 in W/m2
04:39 75.7 °F 72.7 °F 30.07 in Calm   1 mph 90% 0.00 in W/m2
04:44 75.7 °F 72.6 °F 30.07 in Calm   1 mph 90% 0.00 in W/m2
04:49 75.6 °F 72.5 °F 30.07 in Calm   1 mph 90% 0.00 in W/m2
04:54 75.6 °F 72.5 °F 30.08 in West 0.3 mph 1 mph 90% 0.00 in W/m2
04:59 75.6 °F 72.5 °F 30.07 in West 0.1 mph 1 mph 90% 0.00 in W/m2
05:04 75.6 °F 72.7 °F 30.08 in West 0.1 mph 1 mph 90.8% 0.00 in W/m2
05:09 75.7 °F 72.8 °F 30.08 in Calm     91% 0.00 in W/m2
05:14 75.7 °F 72.9 °F 30.08 in West 0.1 mph 1 mph 91% 0.00 in W/m2
05:19 75.7 °F 72.9 °F 30.08 in Calm     91% 0.00 in W/m2
05:24 75.8 °F 73 °F 30.09 in Calm     91% 0.00 in W/m2
05:29 75.9 °F 73 °F 30.09 in Calm     91% 0.00 in W/m2
05:34 75.9 °F 73 °F 30.09 in West 0.8 mph 2 mph 91% 0.00 in W/m2
05:39 75.9 °F 73 °F 30.09 in West 0.3 mph 2 mph 91% 0.00 in W/m2
05:44 75.9 °F 73 °F 30.09 in West 0.7 mph 2 mph 91% 0.00 in W/m2
05:49 75.9 °F 73 °F 30.09 in West 1.1 mph 3 mph 90.9% 0.00 in W/m2
05:54 75.9 °F 73 °F 30.10 in West 1.7 mph 3 mph 91% 0.00 in W/m2
05:59 75.9 °F 73 °F 30.10 in West 1.4 mph 3 mph 91% 0.00 in W/m2
06:04 75.9 °F 73 °F 30.10 in West 1.2 mph 3 mph 91% 0.00 in W/m2
06:09 75.9 °F 73 °F 30.10 in Calm   2 mph 91% 0.00 in W/m2
06:14 75.9 °F 73 °F 30.10 in West 0.4 mph 3 mph 91% 0.00 in W/m2
06:19 75.9 °F 73 °F 30.09 in Calm   1 mph 91% 0.00 in W/m2
06:24 75.9 °F 73 °F 30.10 in West 0.1 mph 1 mph 91% 0.00 in W/m2
06:29 75.8 °F 73 °F 30.10 in Calm   1 mph 91% 0.00 in W/m2
06:34 75.7 °F 72.9 °F 30.10 in Calm     91% 0.00 in W/m2
06:39 75.7 °F 72.9 °F 30.10 in Calm     91% 0.00 in W/m2
06:44 75.7 °F 72.8 °F 30.10 in Calm     91% 0.00 in W/m2
06:49 75.6 °F 72.7 °F 30.10 in Calm     91% 0.00 in W/m2
06:54 75.6 °F 72.7 °F 30.10 in Calm     91% 0.00 in W/m2
06:59 75.6 °F 72.7 °F 30.10 in Calm     91% 0.00 in W/m2
07:04 75.6 °F 72.7 °F 30.10 in Calm     91% 0.00 in W/m2
07:09 75.4 °F 72.5 °F 30.10 in Calm     91% 0.00 in W/m2
07:14 75.4 °F 72.5 °F 30.11 in Calm     91% 0.00 in W/m2
07:19 75.5 °F 72.6 °F 30.11 in Calm     91% 0.00 in W/m2
07:24 75.6 °F 72.8 °F 30.11 in Calm     91.5% 0.00 in W/m2
07:29 75.7 °F 73.2 °F 30.11 in Calm     92% 0.00 in W/m2
07:34 75.7 °F 73.2 °F 30.11 in NE 0.3 mph 1 mph 92% 0.00 in W/m2
07:39 75.9 °F 73.1 °F 30.11 in NNE 1.2 mph 2 mph 91.3% 0.00 in W/m2
07:44 76.1 °F 73.2 °F 30.11 in North 1.6 mph 3 mph 91% 0.00 in W/m2
07:49 76.3 °F 73.4 °F 30.11 in NNW 0.6 mph 2 mph 91% 0.00 in W/m2
07:54 76.4 °F 73.5 °F 30.11 in NNW 1.3 mph 3 mph 91% 0.00 in W/m2
07:59 76.6 °F 73.6 °F 30.12 in West 2.1 mph 4 mph 90.6% 0.00 in W/m2
08:04 76.8 °F 73.6 °F 30.12 in SW 2.6 mph 6 mph 90% 0.00 in W/m2
08:09 77.4 °F 74 °F 30.11 in SW 2.7 mph 4 mph 89% 0.00 in W/m2
08:14 78.1 °F 74.4 °F 30.11 in SW 1.4 mph 6 mph 88.2% 0.00 in W/m2
08:19 78.4 °F 74.5 °F 30.11 in WSW 1.6 mph 3 mph 87.4% 0.00 in W/m2
08:24 78.8 °F 74.4 °F 30.12 in West 2.5 mph 4 mph 86.2% 0.00 in W/m2
08:29 79.2 °F 74.7 °F 30.12 in West 2.5 mph 4 mph 86% 0.00 in W/m2
08:34 79.4 °F 74.6 °F 30.12 in SW 2.8 mph 6 mph 85.2% 0.00 in W/m2
08:39 79.8 °F 74.8 °F 30.12 in SW 1.3 mph 4 mph 84.6% 0.00 in W/m2
08:44 80.2 °F 75.2 °F 30.12 in West 3 mph 7 mph 84.4% 0.00 in W/m2
08:49 80.5 °F 75 °F 30.12 in West 3.5 mph 5 mph 83.2% 0.00 in W/m2
08:54 80.9 °F 75.4 °F 30.12 in West 2.2 mph 4 mph 83% 0.00 in W/m2
08:59 81.3 °F 75.5 °F 30.13 in WSW 2.4 mph 6 mph 82.3% 0.00 in W/m2
09:04 81.9 °F 75.7 °F 30.13 in WNW 2.8 mph 7 mph 81.8% 0.00 in W/m2
09:09 82.1 °F 75.6 °F 30.13 in WNW 2.8 mph 7 mph 81% 0.00 in W/m2
09:14 82.3 °F 75.7 °F 30.14 in WNW 2.2 mph 7 mph 80.5% 0.00 in W/m2
09:19 82.7 °F 76 °F 30.14 in WNW 2.8 mph 4 mph 80.4% 0.00 in W/m2
09:24 83 °F 76.2 °F 30.13 in West 1.2 mph 6 mph 79.9% 0.00 in W/m2
09:29 83.9 °F 76.7 °F 30.14 in WSW 1.9 mph 3 mph 79% 0.00 in W/m2
09:34 84.9 °F 77.2 °F 30.14 in SSW 1.9 mph 7 mph 77.7% 0.00 in W/m2
09:39 85.5 °F 77.1 °F 30.14 in WSW 1.7 mph 4 mph 76.1% 0.00 in W/m2
09:44 86.1 °F 77.1 °F 30.14 in South 2.2 mph 7 mph 74.6% 0.00 in W/m2
09:49 86.5 °F 76.5 °F 30.14 in West 2.2 mph 7 mph 72.1% 0.00 in W/m2
09:54 86.4 °F 75.9 °F 30.14 in WNW 1.7 mph 7 mph 71% 0.00 in W/m2
09:59 86.8 °F 76.2 °F 30.14 in SW 3.5 mph 5 mph 70.9% 0.00 in W/m2
10:04 87.5 °F 76.3 °F 30.14 in South 2.7 mph 5 mph 69.5% 0.00 in W/m2
10:09 87.5 °F 75.8 °F 30.14 in ENE 1.9 mph 5 mph 68.2% 0.00 in W/m2
10:14 87.7 °F 76.5 °F 30.14 in West 1.3 mph 4 mph 69.6% 0.00 in W/m2
10:19 87.7 °F 76.8 °F 30.14 in West 1.7 mph 6 mph 70.3% 0.00 in W/m2
Lake Worth, Florida USA
Compliments of Weather Underground - 4 mb